sensor_id;sensor_type;location;lat;lon;timestamp;P1;durP1;ratioP1;P2;durP2;ratioP2
10517;SDS011;5307;42.548;22.968;2022-08-18T00:01:37;6.93;;;6.18;;
10517;SDS011;5307;42.548;22.968;2022-08-18T00:04:05;7.30;;;6.18;;
10517;SDS011;5307;42.548;22.968;2022-08-18T00:06:36;9.43;;;6.57;;
10517;SDS011;5307;42.548;22.968;2022-08-18T00:09:04;10.77;;;6.07;;
10517;SDS011;5307;42.548;22.968;2022-08-18T00:11:34;9.07;;;6.03;;
10517;SDS011;5307;42.548;22.968;2022-08-18T00:14:03;12.00;;;6.13;;
10517;SDS011;5307;42.548;22.968;2022-08-18T00:16:29;8.13;;;5.82;;
10517;SDS011;5307;42.548;22.968;2022-08-18T00:18:56;9.13;;;6.47;;
10517;SDS011;5307;42.548;22.968;2022-08-18T00:21:24;7.53;;;6.43;;
10517;SDS011;5307;42.548;22.968;2022-08-18T00:23:52;10.43;;;5.90;;
10517;SDS011;5307;42.548;22.968;2022-08-18T00:26:19;6.70;;;6.00;;
10517;SDS011;5307;42.548;22.968;2022-08-18T00:28:46;10.02;;;5.88;;
10517;SDS011;5307;42.548;22.968;2022-08-18T00:31:13;9.23;;;6.22;;
10517;SDS011;5307;42.548;22.968;2022-08-18T00:33:40;9.98;;;6.13;;
10517;SDS011;5307;42.548;22.968;2022-08-18T00:36:07;9.52;;;5.80;;
10517;SDS011;5307;42.548;22.968;2022-08-18T00:38:35;11.73;;;6.70;;
10517;SDS011;5307;42.548;22.968;2022-08-18T00:41:03;8.80;;;6.45;;
10517;SDS011;5307;42.548;22.968;2022-08-18T00:43:31;8.35;;;6.72;;
10517;SDS011;5307;42.548;22.968;2022-08-18T00:46:05;8.70;;;6.75;;
10517;SDS011;5307;42.548;22.968;2022-08-18T00:48:34;9.35;;;6.20;;
10517;SDS011;5307;42.548;22.968;2022-08-18T00:51:01;6.95;;;6.03;;
10517;SDS011;5307;42.548;22.968;2022-08-18T00:53:34;10.25;;;6.20;;
10517;SDS011;5307;42.548;22.968;2022-08-18T00:56:07;10.15;;;5.95;;
10517;SDS011;5307;42.548;22.968;2022-08-18T00:58:40;8.65;;;6.47;;
10517;SDS011;5307;42.548;22.968;2022-08-18T01:01:13;11.75;;;7.00;;
10517;SDS011;5307;42.548;22.968;2022-08-18T01:03:42;7.50;;;6.75;;
10517;SDS011;5307;42.548;22.968;2022-08-18T01:06:20;12.55;;;6.85;;
10517;SDS011;5307;42.548;22.968;2022-08-18T01:09:03;9.32;;;6.70;;
10517;SDS011;5307;42.548;22.968;2022-08-18T01:11:31;9.65;;;6.65;;
10517;SDS011;5307;42.548;22.968;2022-08-18T01:14:01;9.18;;;6.57;;
10517;SDS011;5307;42.548;22.968;2022-08-18T01:16:28;7.20;;;6.15;;
10517;SDS011;5307;42.548;22.968;2022-08-18T01:19:12;8.25;;;6.90;;
10517;SDS011;5307;42.548;22.968;2022-08-18T01:22:01;14.07;;;7.22;;
10517;SDS011;5307;42.548;22.968;2022-08-18T01:24:34;10.00;;;7.32;;
10517;SDS011;5307;42.548;22.968;2022-08-18T01:27:20;10.98;;;6.63;;
10517;SDS011;5307;42.548;22.968;2022-08-18T01:29:48;10.32;;;6.88;;
10517;SDS011;5307;42.548;22.968;2022-08-18T01:32:15;7.53;;;6.68;;
10517;SDS011;5307;42.548;22.968;2022-08-18T01:34:44;8.90;;;7.20;;
10517;SDS011;5307;42.548;22.968;2022-08-18T01:37:12;12.90;;;6.93;;
10517;SDS011;5307;42.548;22.968;2022-08-18T01:39:43;9.73;;;6.88;;
10517;SDS011;5307;42.548;22.968;2022-08-18T01:42:10;9.50;;;7.47;;
10517;SDS011;5307;42.548;22.968;2022-08-18T01:44:38;10.68;;;7.40;;
10517;SDS011;5307;42.548;22.968;2022-08-18T01:47:06;10.63;;;7.63;;
10517;SDS011;5307;42.548;22.968;2022-08-18T01:49:35;7.80;;;6.25;;
10517;SDS011;5307;42.548;22.968;2022-08-18T01:52:02;9.10;;;6.95;;
10517;SDS011;5307;42.548;22.968;2022-08-18T01:54:31;7.63;;;6.80;;
10517;SDS011;5307;42.548;22.968;2022-08-18T01:57:00;9.13;;;6.93;;
10517;SDS011;5307;42.548;22.968;2022-08-18T01:59:27;8.27;;;7.20;;
10517;SDS011;5307;42.548;22.968;2022-08-18T02:01:54;11.10;;;7.30;;
10517;SDS011;5307;42.548;22.968;2022-08-18T02:04:25;7.93;;;6.70;;
10517;SDS011;5307;42.548;22.968;2022-08-18T02:06:57;11.23;;;7.15;;
10517;SDS011;5307;42.548;22.968;2022-08-18T02:09:25;9.63;;;6.90;;
10517;SDS011;5307;42.548;22.968;2022-08-18T02:11:52;9.38;;;7.07;;
10517;SDS011;5307;42.548;22.968;2022-08-18T02:14:21;10.95;;;6.63;;
10517;SDS011;5307;42.548;22.968;2022-08-18T02:16:48;7.75;;;6.95;;
10517;SDS011;5307;42.548;22.968;2022-08-18T02:19:15;10.20;;;7.13;;
10517;SDS011;5307;42.548;22.968;2022-08-18T02:21:42;11.77;;;7.28;;
10517;SDS011;5307;42.548;22.968;2022-08-18T02:24:09;10.95;;;7.40;;
10517;SDS011;5307;42.548;22.968;2022-08-18T02:26:35;7.97;;;6.72;;
10517;SDS011;5307;42.548;22.968;2022-08-18T02:29:02;8.50;;;7.47;;
10517;SDS011;5307;42.548;22.968;2022-08-18T02:31:30;10.63;;;7.28;;
10517;SDS011;5307;42.548;22.968;2022-08-18T02:33:57;7.75;;;6.95;;
10517;SDS011;5307;42.548;22.968;2022-08-18T02:36:24;9.63;;;7.53;;
10517;SDS011;5307;42.548;22.968;2022-08-18T02:38:52;17.35;;;7.10;;
10517;SDS011;5307;42.548;22.968;2022-08-18T02:41:19;9.10;;;7.57;;
10517;SDS011;5307;42.548;22.968;2022-08-18T02:43:47;8.27;;;7.25;;
10517;SDS011;5307;42.548;22.968;2022-08-18T02:46:14;12.68;;;7.63;;
10517;SDS011;5307;42.548;22.968;2022-08-18T02:48:42;12.63;;;7.55;;
10517;SDS011;5307;42.548;22.968;2022-08-18T02:51:10;9.93;;;7.78;;
10517;SDS011;5307;42.548;22.968;2022-08-18T02:53:38;9.32;;;7.90;;
10517;SDS011;5307;42.548;22.968;2022-08-18T02:56:08;8.98;;;7.38;;
10517;SDS011;5307;42.548;22.968;2022-08-18T02:58:47;13.15;;;7.47;;
10517;SDS011;5307;42.548;22.968;2022-08-18T03:01:16;9.30;;;7.55;;
10517;SDS011;5307;42.548;22.968;2022-08-18T03:03:45;12.43;;;8.02;;
10517;SDS011;5307;42.548;22.968;2022-08-18T03:06:12;11.02;;;7.55;;
10517;SDS011;5307;42.548;22.968;2022-08-18T03:08:39;14.98;;;8.00;;
10517;SDS011;5307;42.548;22.968;2022-08-18T03:11:06;13.00;;;7.07;;
10517;SDS011;5307;42.548;22.968;2022-08-18T03:13:33;15.85;;;8.02;;
10517;SDS011;5307;42.548;22.968;2022-08-18T03:15:59;11.48;;;7.60;;
10517;SDS011;5307;42.548;22.968;2022-08-18T03:18:26;8.35;;;7.45;;
10517;SDS011;5307;42.548;22.968;2022-08-18T03:20:54;14.10;;;7.72;;
10517;SDS011;5307;42.548;22.968;2022-08-18T03:23:23;13.30;;;7.05;;
10517;SDS011;5307;42.548;22.968;2022-08-18T03:25:50;16.95;;;7.35;;
10517;SDS011;5307;42.548;22.968;2022-08-18T03:28:17;16.83;;;7.60;;
10517;SDS011;5307;42.548;22.968;2022-08-18T03:30:43;13.65;;;7.90;;
10517;SDS011;5307;42.548;22.968;2022-08-18T03:33:10;11.07;;;8.13;;
10517;SDS011;5307;42.548;22.968;2022-08-18T03:35:37;12.30;;;7.28;;
10517;SDS011;5307;42.548;22.968;2022-08-18T03:38:06;13.40;;;7.93;;
10517;SDS011;5307;42.548;22.968;2022-08-18T03:40:33;16.85;;;7.82;;
10517;SDS011;5307;42.548;22.968;2022-08-18T03:43:01;20.15;;;8.55;;
10517;SDS011;5307;42.548;22.968;2022-08-18T03:45:31;17.30;;;8.52;;
10517;SDS011;5307;42.548;22.968;2022-08-18T03:47:58;11.52;;;8.20;;
10517;SDS011;5307;42.548;22.968;2022-08-18T03:50:25;14.32;;;7.88;;
10517;SDS011;5307;42.548;22.968;2022-08-18T03:52:52;22.45;;;8.07;;
10517;SDS011;5307;42.548;22.968;2022-08-18T03:55:24;13.82;;;8.00;;
10517;SDS011;5307;42.548;22.968;2022-08-18T03:57:56;17.98;;;8.38;;
10517;SDS011;5307;42.548;22.968;2022-08-18T04:00:26;20.88;;;8.50;;
10517;SDS011;5307;42.548;22.968;2022-08-18T04:02:52;18.25;;;8.88;;
10517;SDS011;5307;42.548;22.968;2022-08-18T04:05:19;21.10;;;8.55;;
10517;SDS011;5307;42.548;22.968;2022-08-18T04:07:46;19.63;;;9.10;;
10517;SDS011;5307;42.548;22.968;2022-08-18T04:10:13;15.07;;;8.45;;
10517;SDS011;5307;42.548;22.968;2022-08-18T04:12:42;14.75;;;8.23;;
10517;SDS011;5307;42.548;22.968;2022-08-18T04:15:09;27.52;;;9.20;;
10517;SDS011;5307;42.548;22.968;2022-08-18T04:17:36;25.38;;;9.35;;
10517;SDS011;5307;42.548;22.968;2022-08-18T04:20:03;27.98;;;8.93;;
10517;SDS011;5307;42.548;22.968;2022-08-18T04:22:30;31.08;;;8.60;;
10517;SDS011;5307;42.548;22.968;2022-08-18T04:24:59;22.98;;;9.38;;
10517;SDS011;5307;42.548;22.968;2022-08-18T04:27:26;21.25;;;8.88;;
10517;SDS011;5307;42.548;22.968;2022-08-18T04:29:55;28.98;;;8.88;;
10517;SDS011;5307;42.548;22.968;2022-08-18T04:32:22;15.32;;;8.15;;
10517;SDS011;5307;42.548;22.968;2022-08-18T04:34:50;15.07;;;8.25;;
10517;SDS011;5307;42.548;22.968;2022-08-18T04:37:17;19.98;;;8.60;;
10517;SDS011;5307;42.548;22.968;2022-08-18T04:39:44;21.08;;;8.18;;
10517;SDS011;5307;42.548;22.968;2022-08-18T04:42:12;25.85;;;9.02;;
10517;SDS011;5307;42.548;22.968;2022-08-18T04:44:39;31.88;;;10.13;;
10517;SDS011;5307;42.548;22.968;2022-08-18T04:47:08;18.52;;;10.07;;
10517;SDS011;5307;42.548;22.968;2022-08-18T04:49:35;22.67;;;8.63;;
10517;SDS011;5307;42.548;22.968;2022-08-18T04:52:04;18.75;;;9.40;;
10517;SDS011;5307;42.548;22.968;2022-08-18T04:54:49;16.52;;;9.40;;
10517;SDS011;5307;42.548;22.968;2022-08-18T04:57:17;20.50;;;9.07;;
10517;SDS011;5307;42.548;22.968;2022-08-18T04:59:46;19.85;;;9.57;;
10517;SDS011;5307;42.548;22.968;2022-08-18T05:02:17;14.35;;;8.75;;
10517;SDS011;5307;42.548;22.968;2022-08-18T05:04:45;27.58;;;9.75;;
10517;SDS011;5307;42.548;22.968;2022-08-18T05:07:13;21.10;;;9.60;;
10517;SDS011;5307;42.548;22.968;2022-08-18T05:09:42;15.75;;;8.95;;
10517;SDS011;5307;42.548;22.968;2022-08-18T05:12:09;18.20;;;9.93;;
10517;SDS011;5307;42.548;22.968;2022-08-18T05:14:38;12.10;;;9.60;;
10517;SDS011;5307;42.548;22.968;2022-08-18T05:17:05;12.98;;;8.98;;
10517;SDS011;5307;42.548;22.968;2022-08-18T05:19:34;14.32;;;9.25;;
10517;SDS011;5307;42.548;22.968;2022-08-18T05:22:01;16.10;;;9.07;;
10517;SDS011;5307;42.548;22.968;2022-08-18T05:24:31;17.77;;;8.90;;
10517;SDS011;5307;42.548;22.968;2022-08-18T05:27:01;17.33;;;8.90;;
10517;SDS011;5307;42.548;22.968;2022-08-18T05:29:28;16.08;;;8.80;;
10517;SDS011;5307;42.548;22.968;2022-08-18T05:32:01;14.30;;;8.48;;
10517;SDS011;5307;42.548;22.968;2022-08-18T05:34:32;19.55;;;9.68;;
10517;SDS011;5307;42.548;22.968;2022-08-18T05:37:08;18.45;;;9.00;;
10517;SDS011;5307;42.548;22.968;2022-08-18T05:39:49;18.60;;;8.85;;
10517;SDS011;5307;42.548;22.968;2022-08-18T05:42:21;13.32;;;8.88;;
10517;SDS011;5307;42.548;22.968;2022-08-18T05:44:50;11.65;;;8.90;;
10517;SDS011;5307;42.548;22.968;2022-08-18T05:47:21;21.23;;;9.88;;
10517;SDS011;5307;42.548;22.968;2022-08-18T05:49:51;12.07;;;8.57;;
10517;SDS011;5307;42.548;22.968;2022-08-18T05:52:21;16.33;;;10.05;;
10517;SDS011;5307;42.548;22.968;2022-08-18T05:54:57;19.00;;;11.05;;
10517;SDS011;5307;42.548;22.968;2022-08-18T05:57:46;15.48;;;9.27;;
10517;SDS011;5307;42.548;22.968;2022-08-18T06:00:16;16.30;;;10.32;;
10517;SDS011;5307;42.548;22.968;2022-08-18T06:02:45;16.88;;;11.77;;
10517;SDS011;5307;42.548;22.968;2022-08-18T06:05:21;22.27;;;12.68;;
10517;SDS011;5307;42.548;22.968;2022-08-18T06:07:52;19.85;;;10.45;;
10517;SDS011;5307;42.548;22.968;2022-08-18T06:10:22;16.20;;;9.82;;
10517;SDS011;5307;42.548;22.968;2022-08-18T06:12:51;13.55;;;10.07;;
10517;SDS011;5307;42.548;22.968;2022-08-18T06:15:22;16.98;;;10.30;;
10517;SDS011;5307;42.548;22.968;2022-08-18T06:18:11;15.35;;;9.93;;
10517;SDS011;5307;42.548;22.968;2022-08-18T06:20:56;20.58;;;10.20;;
10517;SDS011;5307;42.548;22.968;2022-08-18T06:23:37;14.65;;;11.30;;
10517;SDS011;5307;42.548;22.968;2022-08-18T06:26:15;13.13;;;10.13;;
10517;SDS011;5307;42.548;22.968;2022-08-18T06:28:52;17.88;;;10.63;;
10517;SDS011;5307;42.548;22.968;2022-08-18T06:31:32;14.02;;;9.77;;
10517;SDS011;5307;42.548;22.968;2022-08-18T06:34:11;15.07;;;9.90;;
10517;SDS011;5307;42.548;22.968;2022-08-18T06:36:51;13.82;;;8.75;;
10517;SDS011;5307;42.548;22.968;2022-08-18T06:39:22;13.40;;;8.70;;
10517;SDS011;5307;42.548;22.968;2022-08-18T06:41:53;12.48;;;8.73;;
10517;SDS011;5307;42.548;22.968;2022-08-18T06:44:22;12.23;;;8.63;;
10517;SDS011;5307;42.548;22.968;2022-08-18T06:46:58;9.30;;;8.20;;
10517;SDS011;5307;42.548;22.968;2022-08-18T06:49:37;13.77;;;9.02;;
10517;SDS011;5307;42.548;22.968;2022-08-18T06:52:18;10.68;;;7.75;;
10517;SDS011;5307;42.548;22.968;2022-08-18T06:54:56;10.77;;;8.50;;
10517;SDS011;5307;42.548;22.968;2022-08-18T06:57:26;15.02;;;7.63;;
10517;SDS011;5307;42.548;22.968;2022-08-18T06:59:57;14.35;;;8.50;;
10517;SDS011;5307;42.548;22.968;2022-08-18T07:02:31;11.82;;;8.15;;
10517;SDS011;5307;42.548;22.968;2022-08-18T07:05:15;9.60;;;7.85;;
10517;SDS011;5307;42.548;22.968;2022-08-18T07:07:46;9.60;;;7.85;;
10517;SDS011;5307;42.548;22.968;2022-08-18T07:10:31;10.55;;;7.82;;
10517;SDS011;5307;42.548;22.968;2022-08-18T07:13:07;16.38;;;8.23;;
10517;SDS011;5307;42.548;22.968;2022-08-18T07:15:40;15.43;;;7.85;;
10517;SDS011;5307;42.548;22.968;2022-08-18T07:18:10;9.35;;;6.78;;
10517;SDS011;5307;42.548;22.968;2022-08-18T07:20:42;8.95;;;7.20;;
10517;SDS011;5307;42.548;22.968;2022-08-18T07:23:22;10.60;;;6.28;;
10517;SDS011;5307;42.548;22.968;2022-08-18T07:25:56;9.05;;;6.47;;
10517;SDS011;5307;42.548;22.968;2022-08-18T07:28:28;8.32;;;5.90;;
10517;SDS011;5307;42.548;22.968;2022-08-18T07:31:06;8.93;;;5.93;;
10517;SDS011;5307;42.548;22.968;2022-08-18T07:33:37;10.48;;;7.10;;
10517;SDS011;5307;42.548;22.968;2022-08-18T07:36:06;12.80;;;6.35;;
10517;SDS011;5307;42.548;22.968;2022-08-18T07:38:51;12.88;;;6.47;;
10517;SDS011;5307;42.548;22.968;2022-08-18T07:41:22;9.65;;;6.15;;
10517;SDS011;5307;42.548;22.968;2022-08-18T07:43:56;11.98;;;7.13;;
10517;SDS011;5307;42.548;22.968;2022-08-18T07:46:33;9.13;;;6.35;;
10517;SDS011;5307;42.548;22.968;2022-08-18T07:49:03;9.55;;;6.40;;
10517;SDS011;5307;42.548;22.968;2022-08-18T07:51:33;12.13;;;6.60;;
10517;SDS011;5307;42.548;22.968;2022-08-18T07:54:15;10.43;;;7.18;;
10517;SDS011;5307;42.548;22.968;2022-08-18T07:56:52;12.95;;;6.50;;
10517;SDS011;5307;42.548;22.968;2022-08-18T07:59:28;14.00;;;7.05;;
10517;SDS011;5307;42.548;22.968;2022-08-18T08:02:07;11.30;;;6.45;;
10517;SDS011;5307;42.548;22.968;2022-08-18T08:04:47;10.07;;;6.30;;
10517;SDS011;5307;42.548;22.968;2022-08-18T08:07:23;7.10;;;6.20;;
10517;SDS011;5307;42.548;22.968;2022-08-18T08:10:02;8.80;;;6.30;;
10517;SDS011;5307;42.548;22.968;2022-08-18T08:12:44;7.25;;;6.18;;
10517;SDS011;5307;42.548;22.968;2022-08-18T08:15:18;8.60;;;6.07;;
10517;SDS011;5307;42.548;22.968;2022-08-18T08:17:54;7.30;;;5.78;;
10517;SDS011;5307;42.548;22.968;2022-08-18T08:20:28;11.57;;;6.68;;
10517;SDS011;5307;42.548;22.968;2022-08-18T08:23:04;12.88;;;6.63;;
10517;SDS011;5307;42.548;22.968;2022-08-18T08:25:45;6.70;;;5.88;;
10517;SDS011;5307;42.548;22.968;2022-08-18T08:28:25;13.48;;;6.53;;
10517;SDS011;5307;42.548;22.968;2022-08-18T08:31:04;8.90;;;5.78;;
10517;SDS011;5307;42.548;22.968;2022-08-18T08:33:36;7.78;;;5.82;;
10517;SDS011;5307;42.548;22.968;2022-08-18T08:36:06;10.02;;;6.00;;
10517;SDS011;5307;42.548;22.968;2022-08-18T08:38:39;10.93;;;6.00;;
10517;SDS011;5307;42.548;22.968;2022-08-18T08:41:12;10.13;;;6.15;;
10517;SDS011;5307;42.548;22.968;2022-08-18T08:43:47;9.20;;;5.68;;
10517;SDS011;5307;42.548;22.968;2022-08-18T08:46:20;17.20;;;6.40;;
10517;SDS011;5307;42.548;22.968;2022-08-18T08:48:51;10.23;;;5.75;;
10517;SDS011;5307;42.548;22.968;2022-08-18T08:51:28;7.97;;;5.80;;
10517;SDS011;5307;42.548;22.968;2022-08-18T08:54:00;9.65;;;5.93;;
10517;SDS011;5307;42.548;22.968;2022-08-18T08:56:34;8.88;;;5.78;;
10517;SDS011;5307;42.548;22.968;2022-08-18T08:59:10;6.45;;;4.95;;
10517;SDS011;5307;42.548;22.968;2022-08-18T09:01:39;10.10;;;5.28;;
10517;SDS011;5307;42.548;22.968;2022-08-18T09:04:19;11.32;;;5.43;;
10517;SDS011;5307;42.548;22.968;2022-08-18T09:07:07;7.50;;;5.35;;
10517;SDS011;5307;42.548;22.968;2022-08-18T09:10:01;7.75;;;5.95;;
10517;SDS011;5307;42.548;22.968;2022-08-18T09:12:57;7.65;;;5.22;;
10517;SDS011;5307;42.548;22.968;2022-08-18T09:15:39;5.22;;;4.47;;
10517;SDS011;5307;42.548;22.968;2022-08-18T09:21:17;7.97;;;4.70;;
10517;SDS011;5307;42.548;22.968;2022-08-18T09:23:54;6.32;;;4.72;;
10517;SDS011;5307;42.548;22.968;2022-08-18T09:26:40;5.70;;;4.45;;
10517;SDS011;5307;42.548;22.968;2022-08-18T09:29:15;7.20;;;4.80;;
10517;SDS011;5307;42.548;22.968;2022-08-18T09:31:47;7.28;;;4.93;;
10517;SDS011;5307;42.548;22.968;2022-08-18T09:34:41;5.85;;;4.78;;
10517;SDS011;5307;42.548;22.968;2022-08-18T09:37:17;6.30;;;5.00;;
10517;SDS011;5307;42.548;22.968;2022-08-18T09:39:51;6.80;;;4.43;;
10517;SDS011;5307;42.548;22.968;2022-08-18T09:42:47;6.78;;;4.88;;
10517;SDS011;5307;42.548;22.968;2022-08-18T09:48:27;10.75;;;5.00;;
10517;SDS011;5307;42.548;22.968;2022-08-18T09:54:05;10.50;;;4.88;;
10517;SDS011;5307;42.548;22.968;2022-08-18T09:56:55;7.68;;;5.10;;
10517;SDS011;5307;42.548;22.968;2022-08-18T09:59:55;9.27;;;5.20;;
10517;SDS011;5307;42.548;22.968;2022-08-18T10:05:35;10.75;;;4.60;;
10517;SDS011;5307;42.548;22.968;2022-08-18T10:11:19;7.28;;;5.30;;
10517;SDS011;5307;42.548;22.968;2022-08-18T10:13:58;7.97;;;4.88;;
10517;SDS011;5307;42.548;22.968;2022-08-18T10:16:40;5.97;;;4.90;;
10517;SDS011;5307;42.548;22.968;2022-08-18T10:19:13;6.72;;;4.18;;
10517;SDS011;5307;42.548;22.968;2022-08-18T10:24:37;4.93;;;4.38;;
10517;SDS011;5307;42.548;22.968;2022-08-18T10:27:46;6.38;;;4.65;;
10517;SDS011;5307;42.548;22.968;2022-08-18T10:30:02;5.88;;;4.30;;
10517;SDS011;5307;42.548;22.968;2022-08-18T10:41:11;5.25;;;4.75;;
10517;SDS011;5307;42.548;22.968;2022-08-18T10:43:46;5.05;;;4.50;;
10517;SDS011;5307;42.548;22.968;2022-08-18T10:46:18;4.88;;;4.47;;
10517;SDS011;5307;42.548;22.968;2022-08-18T10:48:58;5.20;;;4.70;;
10517;SDS011;5307;42.548;22.968;2022-08-18T10:51:29;8.77;;;4.93;;
10517;SDS011;5307;42.548;22.968;2022-08-18T10:54:11;7.78;;;4.55;;
10517;SDS011;5307;42.548;22.968;2022-08-18T10:56:45;7.28;;;4.00;;
10517;SDS011;5307;42.548;22.968;2022-08-18T10:59:17;7.03;;;4.78;;
10517;SDS011;5307;42.548;22.968;2022-08-18T11:01:56;4.65;;;3.95;;
10517;SDS011;5307;42.548;22.968;2022-08-18T11:04:34;6.28;;;4.70;;
10517;SDS011;5307;42.548;22.968;2022-08-18T11:07:04;8.07;;;4.28;;
10517;SDS011;5307;42.548;22.968;2022-08-18T11:09:34;4.65;;;4.20;;
10517;SDS011;5307;42.548;22.968;2022-08-18T11:12:05;6.30;;;4.32;;
10517;SDS011;5307;42.548;22.968;2022-08-18T11:14:39;5.22;;;3.85;;
10517;SDS011;5307;42.548;22.968;2022-08-18T11:17:19;5.30;;;4.10;;
10517;SDS011;5307;42.548;22.968;2022-08-18T11:19:53;5.25;;;3.65;;
10517;SDS011;5307;42.548;22.968;2022-08-18T11:22:24;4.68;;;4.10;;
10517;SDS011;5307;42.548;22.968;2022-08-18T11:24:52;5.72;;;3.78;;
10517;SDS011;5307;42.548;22.968;2022-08-18T11:27:20;4.22;;;3.90;;
10517;SDS011;5307;42.548;22.968;2022-08-18T11:29:48;8.00;;;3.97;;
10517;SDS011;5307;42.548;22.968;2022-08-18T11:32:19;4.55;;;3.90;;
10517;SDS011;5307;42.548;22.968;2022-08-18T11:34:50;7.47;;;4.18;;
10517;SDS011;5307;42.548;22.968;2022-08-18T11:37:25;4.65;;;3.97;;
10517;SDS011;5307;42.548;22.968;2022-08-18T11:39:58;5.18;;;3.88;;
10517;SDS011;5307;42.548;22.968;2022-08-18T11:42:28;9.38;;;4.32;;
10517;SDS011;5307;42.548;22.968;2022-08-18T11:45:05;5.22;;;4.05;;
10517;SDS011;5307;42.548;22.968;2022-08-18T11:47:47;4.05;;;3.38;;
10517;SDS011;5307;42.548;22.968;2022-08-18T11:50:26;4.45;;;3.70;;
10517;SDS011;5307;42.548;22.968;2022-08-18T11:52:55;5.82;;;3.63;;
10517;SDS011;5307;42.548;22.968;2022-08-18T11:55:27;7.50;;;3.88;;
10517;SDS011;5307;42.548;22.968;2022-08-18T11:57:56;7.32;;;3.78;;
10517;SDS011;5307;42.548;22.968;2022-08-18T12:00:40;4.63;;;4.22;;
10517;SDS011;5307;42.548;22.968;2022-08-18T12:03:21;4.45;;;4.05;;
10517;SDS011;5307;42.548;22.968;2022-08-18T12:05:56;7.35;;;3.95;;
10517;SDS011;5307;42.548;22.968;2022-08-18T12:08:27;5.03;;;3.72;;
10517;SDS011;5307;42.548;22.968;2022-08-18T12:11:04;4.63;;;3.50;;
10517;SDS011;5307;42.548;22.968;2022-08-18T12:13:41;7.75;;;4.00;;
10517;SDS011;5307;42.548;22.968;2022-08-18T12:16:11;4.78;;;4.00;;
10517;SDS011;5307;42.548;22.968;2022-08-18T12:18:42;4.35;;;3.92;;
10517;SDS011;5307;42.548;22.968;2022-08-18T12:21:09;4.60;;;3.90;;
10517;SDS011;5307;42.548;22.968;2022-08-18T12:23:36;3.58;;;3.28;;
10517;SDS011;5307;42.548;22.968;2022-08-18T12:26:07;3.75;;;3.42;;
10517;SDS011;5307;42.548;22.968;2022-08-18T12:28:34;6.82;;;4.13;;
10517;SDS011;5307;42.548;22.968;2022-08-18T12:31:01;4.40;;;4.00;;
10517;SDS011;5307;42.548;22.968;2022-08-18T12:33:28;5.07;;;3.63;;
10517;SDS011;5307;42.548;22.968;2022-08-18T12:35:56;5.13;;;4.05;;
10517;SDS011;5307;42.548;22.968;2022-08-18T12:38:23;6.72;;;3.83;;
10517;SDS011;5307;42.548;22.968;2022-08-18T12:40:50;4.47;;;3.55;;
10517;SDS011;5307;42.548;22.968;2022-08-18T12:43:17;5.05;;;3.42;;
10517;SDS011;5307;42.548;22.968;2022-08-18T12:45:44;4.78;;;3.50;;
10517;SDS011;5307;42.548;22.968;2022-08-18T12:48:11;5.68;;;3.60;;
10517;SDS011;5307;42.548;22.968;2022-08-18T12:50:38;5.10;;;3.60;;
10517;SDS011;5307;42.548;22.968;2022-08-18T12:53:07;6.07;;;3.92;;
10517;SDS011;5307;42.548;22.968;2022-08-18T12:55:38;4.43;;;3.50;;
10517;SDS011;5307;42.548;22.968;2022-08-18T12:58:07;4.80;;;3.92;;
10517;SDS011;5307;42.548;22.968;2022-08-18T13:00:34;8.02;;;3.50;;
10517;SDS011;5307;42.548;22.968;2022-08-18T13:03:01;5.28;;;3.50;;
10517;SDS011;5307;42.548;22.968;2022-08-18T13:05:28;3.92;;;3.60;;
10517;SDS011;5307;42.548;22.968;2022-08-18T13:07:55;5.05;;;3.95;;
10517;SDS011;5307;42.548;22.968;2022-08-18T13:10:25;7.65;;;3.70;;
10517;SDS011;5307;42.548;22.968;2022-08-18T13:12:52;7.15;;;3.95;;
10517;SDS011;5307;42.548;22.968;2022-08-18T13:15:18;4.20;;;3.80;;
10517;SDS011;5307;42.548;22.968;2022-08-18T13:17:46;4.97;;;3.35;;
10517;SDS011;5307;42.548;22.968;2022-08-18T13:20:14;3.58;;;3.22;;
10517;SDS011;5307;42.548;22.968;2022-08-18T13:22:42;4.45;;;3.53;;
10517;SDS011;5307;42.548;22.968;2022-08-18T13:25:10;4.28;;;3.40;;
10517;SDS011;5307;42.548;22.968;2022-08-18T13:27:40;4.22;;;3.83;;
10517;SDS011;5307;42.548;22.968;2022-08-18T13:30:08;4.75;;;3.60;;
10517;SDS011;5307;42.548;22.968;2022-08-18T13:32:38;4.15;;;3.75;;
10517;SDS011;5307;42.548;22.968;2022-08-18T13:35:06;6.82;;;3.80;;
10517;SDS011;5307;42.548;22.968;2022-08-18T13:37:34;4.13;;;3.80;;
10517;SDS011;5307;42.548;22.968;2022-08-18T13:40:02;3.47;;;3.17;;
10517;SDS011;5307;42.548;22.968;2022-08-18T13:42:29;6.60;;;3.50;;
10517;SDS011;5307;42.548;22.968;2022-08-18T13:44:58;4.20;;;3.65;;
10517;SDS011;5307;42.548;22.968;2022-08-18T13:47:25;5.55;;;3.20;;
10517;SDS011;5307;42.548;22.968;2022-08-18T13:49:53;5.75;;;3.42;;
10517;SDS011;5307;42.548;22.968;2022-08-18T13:52:20;4.07;;;3.60;;
10517;SDS011;5307;42.548;22.968;2022-08-18T13:54:47;7.68;;;3.58;;
10517;SDS011;5307;42.548;22.968;2022-08-18T13:57:14;5.43;;;4.10;;
10517;SDS011;5307;42.548;22.968;2022-08-18T13:59:41;4.05;;;3.65;;
10517;SDS011;5307;42.548;22.968;2022-08-18T14:02:09;4.75;;;3.53;;
10517;SDS011;5307;42.548;22.968;2022-08-18T14:04:37;6.22;;;3.75;;
10517;SDS011;5307;42.548;22.968;2022-08-18T14:07:05;5.20;;;3.75;;
10517;SDS011;5307;42.548;22.968;2022-08-18T14:09:33;5.38;;;3.80;;
10517;SDS011;5307;42.548;22.968;2022-08-18T14:12:01;4.38;;;3.67;;
10517;SDS011;5307;42.548;22.968;2022-08-18T14:14:30;4.68;;;3.85;;
10517;SDS011;5307;42.548;22.968;2022-08-18T14:16:57;5.50;;;4.15;;
10517;SDS011;5307;42.548;22.968;2022-08-18T14:19:25;4.97;;;4.13;;
10517;SDS011;5307;42.548;22.968;2022-08-18T14:22:09;5.65;;;4.28;;
10517;SDS011;5307;42.548;22.968;2022-08-18T14:24:54;4.50;;;3.70;;
10517;SDS011;5307;42.548;22.968;2022-08-18T14:27:36;6.97;;;3.92;;
10517;SDS011;5307;42.548;22.968;2022-08-18T14:30:04;7.10;;;4.07;;
10517;SDS011;5307;42.548;22.968;2022-08-18T14:32:33;4.53;;;3.92;;
10517;SDS011;5307;42.548;22.968;2022-08-18T14:35:02;4.90;;;4.38;;
10517;SDS011;5307;42.548;22.968;2022-08-18T14:37:31;7.57;;;4.20;;
10517;SDS011;5307;42.548;22.968;2022-08-18T14:39:58;4.97;;;3.80;;
10517;SDS011;5307;42.548;22.968;2022-08-18T14:42:25;4.75;;;4.20;;
10517;SDS011;5307;42.548;22.968;2022-08-18T14:44:52;5.70;;;3.90;;
10517;SDS011;5307;42.548;22.968;2022-08-18T14:47:20;4.75;;;4.25;;
10517;SDS011;5307;42.548;22.968;2022-08-18T14:49:46;7.40;;;4.55;;
10517;SDS011;5307;42.548;22.968;2022-08-18T14:52:15;7.20;;;4.13;;
10517;SDS011;5307;42.548;22.968;2022-08-18T14:54:41;7.28;;;4.47;;
10517;SDS011;5307;42.548;22.968;2022-08-18T14:57:08;4.32;;;3.92;;
10517;SDS011;5307;42.548;22.968;2022-08-18T14:59:36;6.68;;;3.70;;
10517;SDS011;5307;42.548;22.968;2022-08-18T15:02:04;5.28;;;4.03;;
10517;SDS011;5307;42.548;22.968;2022-08-18T15:04:32;4.07;;;3.78;;
10517;SDS011;5307;42.548;22.968;2022-08-18T15:06:59;9.27;;;4.20;;
10517;SDS011;5307;42.548;22.968;2022-08-18T15:09:28;4.85;;;4.00;;
10517;SDS011;5307;42.548;22.968;2022-08-18T15:11:55;9.05;;;4.18;;
10517;SDS011;5307;42.548;22.968;2022-08-18T15:14:23;5.97;;;4.38;;
10517;SDS011;5307;42.548;22.968;2022-08-18T15:16:51;6.25;;;4.40;;
10517;SDS011;5307;42.548;22.968;2022-08-18T15:19:18;5.18;;;4.25;;
10517;SDS011;5307;42.548;22.968;2022-08-18T15:21:47;6.93;;;4.45;;
10517;SDS011;5307;42.548;22.968;2022-08-18T15:24:32;6.07;;;4.43;;
10517;SDS011;5307;42.548;22.968;2022-08-18T15:27:16;6.03;;;4.47;;
10517;SDS011;5307;42.548;22.968;2022-08-18T15:29:43;6.95;;;4.45;;
10517;SDS011;5307;42.548;22.968;2022-08-18T15:32:10;6.82;;;4.20;;
10517;SDS011;5307;42.548;22.968;2022-08-18T15:34:39;5.38;;;4.03;;